sim
Sign-in with your pilot id or email,
or register
Callsign
Passwort

Schedule Details

Flight Number: OEC321
Departure: Dusseldorf International Airport (EDDL) at Time
Arrival: Fuerteventura Airport (GCFV) at Time

Weather Information
Getting current METAR information for EDDL 160250Z 16013KT CAVOK 08/00 Q1026 NOSIG
Getting current METAR information for GCFV 160300Z AUTO 27006KT 9999 NCD 13/11 Q1017

Schedule Frequency

Route Map